createdAt,value
2023-02-08T00:00:52.495Z,28.50
2023-02-08T00:03:20.360Z,26.30
2023-02-08T00:05:48.417Z,31.70
2023-02-08T00:08:16.880Z,26.40
2023-02-08T00:10:44.740Z,27.20
2023-02-08T00:13:12.652Z,27.90
2023-02-08T00:15:44.806Z,28.60
2023-02-08T00:18:14.408Z,28.30
2023-02-08T00:20:42.724Z,27.90
2023-02-08T00:23:12.079Z,25.80
2023-02-08T00:25:40.684Z,27.00
2023-02-08T00:28:11.670Z,24.50
2023-02-08T00:30:39.853Z,22.90
2023-02-08T00:33:09.121Z,22.30
2023-02-08T00:35:38.082Z,23.20
2023-02-08T00:38:05.941Z,24.00
2023-02-08T00:40:34.200Z,27.50
2023-02-08T00:43:02.829Z,30.00
2023-02-08T00:45:32.573Z,29.00
2023-02-08T00:48:00.471Z,32.10
2023-02-08T00:50:28.471Z,33.30
2023-02-08T00:52:59.419Z,33.20
2023-02-08T00:55:27.370Z,32.50
2023-02-08T00:57:55.313Z,31.70
2023-02-08T01:00:23.786Z,32.60
2023-02-08T01:02:52.058Z,34.80
2023-02-08T01:05:20.166Z,33.10
2023-02-08T01:07:48.336Z,35.60
2023-02-08T01:10:16.347Z,31.60
2023-02-08T01:12:46.715Z,32.40
2023-02-08T01:15:14.991Z,30.70
2023-02-08T01:17:46.306Z,33.10
2023-02-08T01:20:14.179Z,30.90
2023-02-08T01:22:42.144Z,30.10
2023-02-08T01:25:11.276Z,27.40
2023-02-08T01:27:39.888Z,27.20
2023-02-08T01:30:08.649Z,27.90
2023-02-08T01:32:37.011Z,27.30
2023-02-08T01:35:06.103Z,28.90
2023-02-08T01:37:34.747Z,28.00
2023-02-08T01:40:04.319Z,29.80
2023-02-08T01:42:32.399Z,33.40
2023-02-08T01:45:23.577Z,33.80
2023-02-08T01:48:09.616Z,33.00
2023-02-08T01:50:52.048Z,35.10
2023-02-08T01:53:20.166Z,32.80
2023-02-08T01:55:49.835Z,34.60
2023-02-08T01:58:17.993Z,33.80
2023-02-08T02:00:46.455Z,36.80
2023-02-08T02:03:14.853Z,40.70
2023-02-08T02:05:50.242Z,37.70
2023-02-08T02:10:49.341Z,33.30
2023-02-08T02:13:22.211Z,28.30
2023-02-08T02:15:50.343Z,26.30
2023-02-08T02:18:26.524Z,30.80
2023-02-08T02:21:08.150Z,28.30
2023-02-08T02:23:48.418Z,29.40
2023-02-08T02:26:44.413Z,30.00
2023-02-08T02:29:40.120Z,32.40
2023-02-08T02:32:26.417Z,33.30
2023-02-08T02:35:12.772Z,31.30
2023-02-08T02:37:49.598Z,32.30
2023-02-08T02:40:23.621Z,30.80
2023-02-08T02:43:35.081Z,31.40
2023-02-08T02:46:07.806Z,29.90
2023-02-08T02:49:01.083Z,32.60
2023-02-08T02:51:52.149Z,29.70
2023-02-08T02:54:23.474Z,29.40
2023-02-08T02:56:53.902Z,33.20
2023-02-08T02:59:21.675Z,37.30
2023-02-08T03:01:49.693Z,41.70
2023-02-08T03:04:32.927Z,44.70
2023-02-08T03:07:19.713Z,45.60
2023-02-08T03:10:16.046Z,49.90
2023-02-08T03:13:18.056Z,46.90
2023-02-08T03:16:00.758Z,51.50
2023-02-08T03:19:00.070Z,52.40
2023-02-08T03:21:51.357Z,47.00
2023-02-08T03:24:45.589Z,39.50
2023-02-08T03:27:40.785Z,37.10
2023-02-08T03:30:32.049Z,41.10
2023-02-08T03:33:03.194Z,40.70
2023-02-08T03:38:11.566Z,34.80
2023-02-08T03:40:42.681Z,33.20
2023-02-08T03:43:23.903Z,35.10
2023-02-08T03:45:55.552Z,34.40
2023-02-08T03:50:52.466Z,35.10
2023-02-08T03:53:22.061Z,37.30
2023-02-08T03:55:51.955Z,36.30
2023-02-08T03:58:23.381Z,32.70
2023-02-08T04:01:14.096Z,31.40
2023-02-08T04:03:42.336Z,33.00
2023-02-08T04:06:10.340Z,37.80
2023-02-08T04:08:38.225Z,32.80
2023-02-08T04:11:09.054Z,33.40
2023-02-08T04:13:37.996Z,33.20
2023-02-08T04:16:06.296Z,33.60
2023-02-08T04:18:34.859Z,34.90
2023-02-08T04:21:04.010Z,37.70
2023-02-08T04:23:32.739Z,42.10
2023-02-08T04:26:00.627Z,43.70
2023-02-08T04:28:28.638Z,47.20
2023-02-08T04:30:57.210Z,45.10
2023-02-08T04:33:25.642Z,47.40
2023-02-08T04:35:53.970Z,52.80
2023-02-08T04:38:21.831Z,54.40
2023-02-08T04:40:49.901Z,44.40
2023-02-08T04:43:17.970Z,35.50
2023-02-08T04:45:45.824Z,30.30
2023-02-08T04:48:13.820Z,32.90
2023-02-08T04:50:42.373Z,32.90
2023-02-08T04:53:10.763Z,34.00
2023-02-08T04:55:38.805Z,34.20
2023-02-08T04:58:09.076Z,30.80
2023-02-08T05:00:37.830Z,30.30
2023-02-08T05:03:06.373Z,33.60
2023-02-08T05:05:34.406Z,32.30
2023-02-08T05:08:02.851Z,33.30
2023-02-08T05:10:30.862Z,33.80
2023-02-08T05:12:59.028Z,33.20
2023-02-08T05:15:27.042Z,31.50
2023-02-08T05:17:54.986Z,28.10
2023-02-08T05:20:22.812Z,28.30
2023-02-08T05:22:50.972Z,33.80
2023-02-08T05:25:18.905Z,35.20
2023-02-08T05:27:46.915Z,38.60
2023-02-08T05:30:14.786Z,41.50
2023-02-08T05:32:42.763Z,41.00
2023-02-08T05:35:10.617Z,42.20
2023-02-08T05:37:38.677Z,34.80
2023-02-08T05:40:07.128Z,35.00
2023-02-08T05:42:36.047Z,33.10
2023-02-08T05:45:04.747Z,34.50
2023-02-08T05:47:33.436Z,35.50
2023-02-08T05:50:01.327Z,29.90
2023-02-08T05:52:29.772Z,28.70
2023-02-08T05:54:59.102Z,27.80
2023-02-08T05:57:28.346Z,28.70
2023-02-08T05:59:57.527Z,32.40
2023-02-08T06:02:25.676Z,31.60
2023-02-08T06:04:53.524Z,29.40
2023-02-08T06:07:21.730Z,26.20
2023-02-08T06:09:50.512Z,25.90
2023-02-08T06:12:19.067Z,26.90
2023-02-08T06:14:49.198Z,25.70
2023-02-08T06:17:17.071Z,28.30
2023-02-08T06:19:45.202Z,31.40
2023-02-08T06:22:13.255Z,33.70
2023-02-08T06:24:41.349Z,34.00
2023-02-08T06:27:09.585Z,37.80
2023-02-08T06:29:37.484Z,39.20
2023-02-08T06:32:05.713Z,43.80
2023-02-08T06:34:33.765Z,48.00
2023-02-08T06:37:02.381Z,48.30
2023-02-08T06:39:30.340Z,51.40
2023-02-08T06:41:58.432Z,53.80
2023-02-08T06:44:26.485Z,54.70
2023-02-08T06:46:54.487Z,56.30
2023-02-08T06:49:22.536Z,60.70
2023-02-08T06:51:50.963Z,61.80
2023-02-08T06:54:19.137Z,67.60
2023-02-08T06:56:47.000Z,64.10
2023-02-08T06:59:14.895Z,63.10
2023-02-08T07:01:42.791Z,62.70
2023-02-08T07:04:10.816Z,53.20
2023-02-08T07:06:39.349Z,53.20
2023-02-08T07:09:07.359Z,52.20
2023-02-08T07:11:36.179Z,51.50
2023-02-08T07:14:10.544Z,58.50
2023-02-08T07:16:44.546Z,56.80
2023-02-08T07:19:13.020Z,54.60
2023-02-08T07:21:42.136Z,56.70
2023-02-08T07:24:10.553Z,56.60
2023-02-08T07:26:38.462Z,61.30
2023-02-08T07:29:06.851Z,57.50
2023-02-08T07:31:42.556Z,64.30
2023-02-08T07:34:14.281Z,58.10
2023-02-08T07:36:53.098Z,57.50
2023-02-08T07:39:21.654Z,57.50
2023-02-08T07:41:49.787Z,54.50
2023-02-08T07:44:17.849Z,56.00
2023-02-08T07:46:45.712Z,58.40
2023-02-08T07:49:13.626Z,54.00
2023-02-08T07:51:41.432Z,54.80
2023-02-08T07:54:09.717Z,50.00
2023-02-08T07:56:37.821Z,54.70
2023-02-08T07:59:06.167Z,53.90
2023-02-08T08:01:36.547Z,48.50
2023-02-08T08:04:04.778Z,48.10
2023-02-08T08:06:33.160Z,46.70
2023-02-08T08:09:01.715Z,47.80
2023-02-08T08:11:29.994Z,51.90
2023-02-08T08:13:58.770Z,52.30
2023-02-08T08:16:26.891Z,56.00
2023-02-08T08:18:54.825Z,61.50
2023-02-08T08:21:22.741Z,58.60
2023-02-08T08:23:50.822Z,55.10
2023-02-08T08:26:20.085Z,58.10
2023-02-08T08:28:52.409Z,56.20
2023-02-08T08:31:21.569Z,54.40
2023-02-08T08:33:49.649Z,61.30
2023-02-08T08:36:18.454Z,56.60
2023-02-08T08:38:46.611Z,51.40
2023-02-08T08:41:17.929Z,48.00
2023-02-08T08:46:15.206Z,39.70
2023-02-08T08:48:43.534Z,43.50
2023-02-08T08:51:11.563Z,52.30
2023-02-08T08:53:39.971Z,46.30
2023-02-08T08:56:08.125Z,50.00
2023-02-08T08:58:36.475Z,46.80
2023-02-08T09:01:04.590Z,44.90
2023-02-08T09:03:32.836Z,42.90
2023-02-08T09:06:01.606Z,39.50
2023-02-08T09:08:29.760Z,42.10
2023-02-08T09:11:03.574Z,43.90
2023-02-08T09:13:32.404Z,43.80
2023-02-08T09:16:09.104Z,44.30
2023-02-08T09:18:37.063Z,57.80
2023-02-08T09:21:06.823Z,50.50
2023-02-08T09:23:34.770Z,42.50
2023-02-08T09:26:08.861Z,40.40
2023-02-08T09:28:38.092Z,40.10
2023-02-08T09:31:09.255Z,42.10
2023-02-08T09:36:06.030Z,39.10
2023-02-08T09:38:34.840Z,38.50
2023-02-08T09:41:42.852Z,34.30
2023-02-08T09:44:29.427Z,34.10
2023-02-08T09:47:02.128Z,34.20
2023-02-08T09:49:33.001Z,34.50
2023-02-08T09:52:03.083Z,33.70
2023-02-08T09:54:39.900Z,30.40
2023-02-08T09:57:14.319Z,28.50
2023-02-08T09:59:51.477Z,27.10
2023-02-08T10:02:26.511Z,24.60
2023-02-08T10:05:05.959Z,21.90
2023-02-08T10:07:34.237Z,22.60
2023-02-08T10:10:05.367Z,23.20
2023-02-08T10:12:45.572Z,24.00
2023-02-08T10:15:24.602Z,22.80
2023-02-08T10:18:19.054Z,24.90
2023-02-08T10:21:14.084Z,24.70
2023-02-08T10:24:08.571Z,26.20
2023-02-08T10:26:38.772Z,23.10
2023-02-08T10:29:45.909Z,23.70
2023-02-08T10:32:39.092Z,20.60
2023-02-08T10:35:12.312Z,20.60
2023-02-08T10:37:41.853Z,19.70
2023-02-08T10:40:18.935Z,20.30
2023-02-08T10:43:01.014Z,21.60
2023-02-08T10:45:32.634Z,20.40
2023-02-08T10:48:03.259Z,18.70
2023-02-08T10:50:36.301Z,20.60
2023-02-08T10:53:04.852Z,21.20
2023-02-08T10:55:36.196Z,21.00
2023-02-08T10:58:13.556Z,20.80
2023-02-08T11:00:41.725Z,20.00
2023-02-08T11:03:19.169Z,21.60
2023-02-08T11:05:47.404Z,19.50
2023-02-08T11:08:19.982Z,18.80
2023-02-08T11:10:57.493Z,20.60
2023-02-08T11:13:31.888Z,20.90
2023-02-08T11:16:00.957Z,19.90
2023-02-08T11:18:33.180Z,19.60
2023-02-08T11:21:10.623Z,19.00
2023-02-08T11:23:42.594Z,19.80
2023-02-08T11:26:33.814Z,21.00
2023-02-08T11:29:03.286Z,22.60
2023-02-08T11:31:32.429Z,20.50
2023-02-08T11:34:05.258Z,22.50
2023-02-08T11:36:34.476Z,22.40
2023-02-08T11:39:14.815Z,24.30
2023-02-08T11:41:46.713Z,24.20
2023-02-08T11:44:20.834Z,28.30
2023-02-08T11:46:49.018Z,26.20
2023-02-08T11:49:39.575Z,26.50
2023-02-08T11:52:20.093Z,24.30
2023-02-08T11:54:48.326Z,24.80
2023-02-08T11:57:19.288Z,24.10
2023-02-08T11:59:47.997Z,22.30
2023-02-08T12:02:36.487Z,21.20
2023-02-08T12:05:10.110Z,21.60
2023-02-08T12:07:56.979Z,22.90
2023-02-08T12:10:58.594Z,22.70
2023-02-08T12:13:47.607Z,25.00
2023-02-08T12:16:37.466Z,40.20
2023-02-08T12:19:24.215Z,34.30
2023-02-08T12:22:14.051Z,27.00
2023-02-08T12:24:48.222Z,25.60
2023-02-08T12:27:46.598Z,26.10
2023-02-08T12:30:21.714Z,24.90
2023-02-08T12:33:29.463Z,24.00
2023-02-08T12:36:04.645Z,22.90
2023-02-08T12:39:47.544Z,22.10
2023-02-08T12:42:50.423Z,22.50
2023-02-08T12:45:27.974Z,21.90
2023-02-08T12:48:05.514Z,23.00
2023-02-08T12:50:48.557Z,25.30
2023-02-08T12:53:37.977Z,29.00
2023-02-08T12:56:08.342Z,24.60
2023-02-08T12:59:01.964Z,24.20
2023-02-08T13:01:44.122Z,19.40
2023-02-08T13:04:17.380Z,18.20
2023-02-08T13:06:52.010Z,18.30
2023-02-08T13:09:22.700Z,19.90
2023-02-08T13:12:00.145Z,20.40
2023-02-08T13:14:35.810Z,21.10
2023-02-08T13:17:24.050Z,20.80
2023-02-08T13:20:07.134Z,21.90
2023-02-08T13:22:37.346Z,24.40
2023-02-08T13:25:08.511Z,24.90
2023-02-08T13:27:37.786Z,23.30
2023-02-08T13:30:06.298Z,22.30
2023-02-08T13:32:44.054Z,19.90
2023-02-08T13:35:14.494Z,18.70
2023-02-08T13:37:42.594Z,18.50
2023-02-08T13:40:16.908Z,17.10
2023-02-08T13:42:51.358Z,15.90
2023-02-08T13:45:34.378Z,31.30
2023-02-08T13:48:04.053Z,19.80
2023-02-08T13:50:35.245Z,18.60
2023-02-08T13:53:04.502Z,17.80
2023-02-08T13:55:33.692Z,18.00
2023-02-08T13:58:16.632Z,16.90
2023-02-08T14:00:53.768Z,18.70
2023-02-08T14:03:23.748Z,19.40
2023-02-08T14:06:20.741Z,17.90
2023-02-08T14:08:55.238Z,18.20
2023-02-08T14:11:52.207Z,18.30
2023-02-08T14:14:21.210Z,17.30
2023-02-08T14:17:04.770Z,17.00
2023-02-08T14:19:37.231Z,16.60
2023-02-08T14:22:07.086Z,18.70
2023-02-08T14:25:01.557Z,17.10
2023-02-08T14:27:39.928Z,18.70
2023-02-08T14:30:17.740Z,17.70
2023-02-08T14:33:08.156Z,17.00
2023-02-08T14:35:37.731Z,16.30
2023-02-08T14:38:23.718Z,17.30
2023-02-08T14:40:57.193Z,16.10
2023-02-08T14:43:35.634Z,18.70
2023-02-08T14:46:37.885Z,20.80
2023-02-08T14:49:16.927Z,19.40
2023-02-08T14:51:57.073Z,26.80
2023-02-08T14:54:32.736Z,28.50
2023-02-08T14:57:02.619Z,22.30
2023-02-08T14:59:32.029Z,20.60
2023-02-08T15:02:01.645Z,18.80
2023-02-08T15:04:29.908Z,20.80
2023-02-08T15:07:16.795Z,18.50
2023-02-08T15:09:44.959Z,17.60
2023-02-08T15:12:32.536Z,17.60
2023-02-08T15:15:02.563Z,18.60
2023-02-08T15:17:41.006Z,16.70
2023-02-08T15:20:17.961Z,16.80
2023-02-08T15:22:46.750Z,22.60
2023-02-08T15:25:31.888Z,22.50
2023-02-08T15:28:20.882Z,23.90
2023-02-08T15:31:00.158Z,22.70
2023-02-08T15:33:28.243Z,22.20
2023-02-08T15:36:01.392Z,27.10
2023-02-08T15:38:29.824Z,29.60
2023-02-08T15:41:11.016Z,30.60
2023-02-08T15:43:39.703Z,30.80
2023-02-08T15:46:25.935Z,28.10
2023-02-08T15:48:54.197Z,26.20
2023-02-08T15:51:24.266Z,26.70
2023-02-08T15:53:53.446Z,29.80
2023-02-08T15:56:35.817Z,31.30
2023-02-08T15:59:04.835Z,32.30
2023-02-08T16:01:34.523Z,31.30
2023-02-08T16:04:06.154Z,30.90
2023-02-08T16:06:39.389Z,29.80
2023-02-08T16:09:07.518Z,32.30
2023-02-08T16:11:35.681Z,32.30
2023-02-08T16:14:09.001Z,29.30
2023-02-08T16:16:48.433Z,28.00
2023-02-08T16:19:27.463Z,23.00
2023-02-08T16:22:16.987Z,21.60
2023-02-08T16:24:47.693Z,25.20
2023-02-08T16:27:29.346Z,26.70
2023-02-08T16:29:57.300Z,28.30
2023-02-08T16:32:29.701Z,27.90
2023-02-08T16:34:59.349Z,25.90
2023-02-08T16:37:33.648Z,30.00
2023-02-08T16:40:07.078Z,33.50
2023-02-08T16:42:36.950Z,51.60
2023-02-08T16:45:08.020Z,47.50
2023-02-08T16:47:36.907Z,50.10
2023-02-08T16:50:06.005Z,56.00
2023-02-08T16:52:34.301Z,57.70
2023-02-08T16:55:04.726Z,52.90
2023-02-08T16:57:46.666Z,47.40
2023-02-08T17:00:26.066Z,44.90
2023-02-08T17:02:54.299Z,44.20
2023-02-08T17:05:23.673Z,36.20
2023-02-08T17:07:51.822Z,35.30
2023-02-08T17:10:29.063Z,34.00
2023-02-08T17:13:13.392Z,33.80
2023-02-08T17:15:47.096Z,33.50
2023-02-08T17:18:15.267Z,33.00
2023-02-08T17:20:44.556Z,36.70
2023-02-08T17:23:12.963Z,31.80
2023-02-08T17:25:41.286Z,38.80
2023-02-08T17:28:14.789Z,52.10
2023-02-08T17:30:43.156Z,58.10
2023-02-08T17:33:19.912Z,68.60
2023-02-08T17:35:49.729Z,65.60
2023-02-08T17:38:18.674Z,86.70
2023-02-08T17:40:46.769Z,85.20
2023-02-08T17:43:14.985Z,67.60
2023-02-08T17:45:43.753Z,56.50
2023-02-08T17:48:13.547Z,54.30
2023-02-08T17:50:43.577Z,52.50
2023-02-08T17:53:11.877Z,56.50
2023-02-08T17:55:42.819Z,62.30
2023-02-08T17:58:11.716Z,66.10
2023-02-08T18:00:39.823Z,61.30
2023-02-08T18:03:07.830Z,61.20
2023-02-08T18:05:37.644Z,66.90
2023-02-08T18:08:06.744Z,63.80
2023-02-08T18:10:36.440Z,54.10
2023-02-08T18:13:04.498Z,43.40
2023-02-08T18:15:32.336Z,44.90
2023-02-08T18:18:00.476Z,49.30
2023-02-08T18:20:28.664Z,45.30
2023-02-08T18:22:56.507Z,42.10
2023-02-08T18:25:24.570Z,43.20
2023-02-08T18:27:52.679Z,51.10
2023-02-08T18:30:20.867Z,54.10
2023-02-08T18:32:49.133Z,62.50
2023-02-08T18:35:17.253Z,53.70
2023-02-08T18:37:46.514Z,57.50
2023-02-08T18:40:14.548Z,65.20
2023-02-08T18:42:43.971Z,67.50
2023-02-08T18:45:11.965Z,58.80
2023-02-08T18:47:40.288Z,52.40
2023-02-08T18:50:09.310Z,50.40
2023-02-08T18:52:38.010Z,49.50
2023-02-08T18:55:06.311Z,56.90
2023-02-08T18:57:38.852Z,66.10
2023-02-08T19:00:07.559Z,69.30
2023-02-08T19:02:39.348Z,66.20
2023-02-08T19:07:35.997Z,57.30
2023-02-08T19:10:04.482Z,63.20
2023-02-08T19:12:32.579Z,64.10
2023-02-08T19:15:00.452Z,71.30
2023-02-08T19:17:28.291Z,72.40
2023-02-08T19:19:57.461Z,70.30
2023-02-08T19:22:25.598Z,69.20
2023-02-08T19:24:54.278Z,69.70
2023-02-08T19:27:23.020Z,65.80
2023-02-08T19:29:56.124Z,60.50
2023-02-08T19:32:24.254Z,59.50
2023-02-08T19:34:52.323Z,62.10
2023-02-08T19:37:20.385Z,65.40
2023-02-08T19:39:48.455Z,62.80
2023-02-08T19:42:16.461Z,63.50
2023-02-08T19:44:45.013Z,69.00
2023-02-08T19:47:13.190Z,84.10
2023-02-08T19:49:41.069Z,83.90
2023-02-08T19:52:08.972Z,86.50
2023-02-08T19:54:37.946Z,80.20
2023-02-08T19:57:06.034Z,73.20
2023-02-08T19:59:35.365Z,65.40
2023-02-08T20:02:03.700Z,68.70
2023-02-08T20:04:32.800Z,61.50
2023-02-08T20:07:00.776Z,68.50
2023-02-08T20:09:29.637Z,67.60
2023-02-08T20:11:59.554Z,63.90
2023-02-08T20:14:32.956Z,49.60
2023-02-08T20:17:01.740Z,55.20
2023-02-08T20:19:29.880Z,56.00
2023-02-08T20:21:57.732Z,60.10
2023-02-08T20:24:25.722Z,61.90
2023-02-08T20:26:53.720Z,62.10
2023-02-08T20:29:22.691Z,69.30
2023-02-08T20:31:55.523Z,78.70
2023-02-08T20:34:23.928Z,71.50
2023-02-08T20:37:06.408Z,66.80
2023-02-08T20:39:36.279Z,64.50
2023-02-08T20:42:04.903Z,67.20
2023-02-08T20:44:33.031Z,63.60
2023-02-08T20:47:01.832Z,64.60
2023-02-08T20:49:32.097Z,68.70
2023-02-08T20:52:00.240Z,69.90
2023-02-08T20:54:28.261Z,66.80
2023-02-08T20:56:56.367Z,69.00
2023-02-08T20:59:24.498Z,74.50
2023-02-08T21:01:52.713Z,69.70
2023-02-08T21:04:23.411Z,68.90
2023-02-08T21:06:52.038Z,73.40
2023-02-08T21:09:20.280Z,82.70
2023-02-08T21:11:49.028Z,95.10
2023-02-08T21:14:21.381Z,101.50
2023-02-08T21:16:56.347Z,97.10
2023-02-08T21:19:26.040Z,97.70
2023-02-08T21:21:58.269Z,98.50
2023-02-08T21:24:26.335Z,86.50
2023-02-08T21:26:54.931Z,81.10
2023-02-08T21:29:23.329Z,82.90
2023-02-08T21:31:54.171Z,86.30
2023-02-08T21:34:23.026Z,60.60
2023-02-08T21:36:51.079Z,88.10
2023-02-08T21:39:20.316Z,82.90
2023-02-08T21:41:49.106Z,86.80
2023-02-08T21:44:17.563Z,81.20
2023-02-08T21:46:45.561Z,83.70
2023-02-08T21:49:32.470Z,81.60
2023-02-08T21:52:18.894Z,80.60
2023-02-08T21:54:46.842Z,78.20
2023-02-08T21:57:19.021Z,72.50
2023-02-08T21:59:48.615Z,79.70
2023-02-08T22:02:26.058Z,76.60
2023-02-08T22:04:55.371Z,77.20
2023-02-08T22:07:23.823Z,75.20
2023-02-08T22:09:52.621Z,75.00
2023-02-08T22:12:22.025Z,79.40
2023-02-08T22:14:51.097Z,78.90
2023-02-08T22:17:19.146Z,83.30
2023-02-08T22:19:47.731Z,82.30
2023-02-08T22:22:15.964Z,84.30
2023-02-08T22:24:43.874Z,86.10
2023-02-08T22:27:12.189Z,81.70
2023-02-08T22:29:40.176Z,81.00
2023-02-08T22:32:09.940Z,88.30
2023-02-08T22:34:38.345Z,86.90
2023-02-08T22:37:06.424Z,93.60
2023-02-08T22:39:35.721Z,100.20
2023-02-08T22:42:08.334Z,91.80
2023-02-08T22:44:36.242Z,91.40
2023-02-08T22:47:06.506Z,101.20
2023-02-08T22:49:34.883Z,98.00
2023-02-08T22:52:03.079Z,99.30
2023-02-08T22:54:31.328Z,90.10
2023-02-08T22:56:59.138Z,81.50
2023-02-08T22:59:27.088Z,76.10
2023-02-08T23:01:55.284Z,74.80
2023-02-08T23:04:23.373Z,73.10
2023-02-08T23:06:51.518Z,73.00
2023-02-08T23:09:19.419Z,71.30
2023-02-08T23:11:47.866Z,77.30
2023-02-08T23:14:16.889Z,73.60
2023-02-08T23:16:45.441Z,77.30
2023-02-08T23:19:17.250Z,83.30
2023-02-08T23:21:45.412Z,84.00
2023-02-08T23:24:13.437Z,82.70
2023-02-08T23:26:41.722Z,81.40
2023-02-08T23:29:09.986Z,80.10
2023-02-08T23:31:40.725Z,78.30
2023-02-08T23:34:11.360Z,85.30
2023-02-08T23:36:40.186Z,84.90
2023-02-08T23:39:08.158Z,89.80
2023-02-08T23:41:37.468Z,91.60
2023-02-08T23:44:05.537Z,94.00
2023-02-08T23:46:34.304Z,92.90
2023-02-08T23:49:02.476Z,88.50
2023-02-08T23:51:30.836Z,84.80
2023-02-08T23:53:58.770Z,81.70
2023-02-08T23:56:27.931Z,85.40
2023-02-08T23:58:57.462Z,83.10
